sensor_id;sensor_type;location;lat;lon;timestamp;P1;durP1;ratioP1;P2;durP2;ratioP2
62056;SDS011;48016;50.284;18.860;2022-09-27T00:01:12;54.70;;;29.90;;
62056;SDS011;48016;50.284;18.860;2022-09-27T00:03:57;48.00;;;26.90;;
62056;SDS011;48016;50.284;18.860;2022-09-27T00:06:43;43.20;;;26.40;;
62056;SDS011;48016;50.284;18.860;2022-09-27T00:09:27;48.30;;;25.80;;
62056;SDS011;48016;50.284;18.860;2022-09-27T00:12:11;47.00;;;27.30;;
62056;SDS011;48016;50.284;18.860;2022-09-27T00:14:55;48.40;;;27.30;;
62056;SDS011;48016;50.284;18.860;2022-09-27T00:17:40;48.10;;;27.70;;
62056;SDS011;48016;50.284;18.860;2022-09-27T00:20:24;49.70;;;27.80;;
62056;SDS011;48016;50.284;18.860;2022-09-27T00:23:08;55.00;;;29.60;;
62056;SDS011;48016;50.284;18.860;2022-09-27T00:25:59;46.00;;;26.80;;
62056;SDS011;48016;50.284;18.860;2022-09-27T00:28:43;45.80;;;26.00;;
62056;SDS011;48016;50.284;18.860;2022-09-27T00:31:28;51.90;;;26.60;;
62056;SDS011;48016;50.284;18.860;2022-09-27T00:34:20;48.30;;;28.10;;
62056;SDS011;48016;50.284;18.860;2022-09-27T00:37:06;48.20;;;29.10;;
62056;SDS011;48016;50.284;18.860;2022-09-27T00:39:51;49.50;;;29.10;;
62056;SDS011;48016;50.284;18.860;2022-09-27T00:42:36;50.10;;;30.30;;
62056;SDS011;48016;50.284;18.860;2022-09-27T00:45:20;47.70;;;28.90;;
62056;SDS011;48016;50.284;18.860;2022-09-27T00:48:04;46.10;;;25.80;;
62056;SDS011;48016;50.284;18.860;2022-09-27T00:50:49;47.50;;;28.30;;
62056;SDS011;48016;50.284;18.860;2022-09-27T00:53:42;46.90;;;27.50;;
62056;SDS011;48016;50.284;18.860;2022-09-27T00:56:31;51.30;;;29.60;;
62056;SDS011;48016;50.284;18.860;2022-09-27T00:59:19;50.40;;;29.00;;
62056;SDS011;48016;50.284;18.860;2022-09-27T01:02:09;49.10;;;27.50;;
62056;SDS011;48016;50.284;18.860;2022-09-27T01:04:54;48.20;;;28.00;;
62056;SDS011;48016;50.284;18.860;2022-09-27T01:07:39;48.50;;;28.40;;
62056;SDS011;48016;50.284;18.860;2022-09-27T01:10:23;47.50;;;29.00;;
62056;SDS011;48016;50.284;18.860;2022-09-27T01:13:17;48.40;;;28.60;;
62056;SDS011;48016;50.284;18.860;2022-09-27T01:22:21;44.80;;;26.90;;
62056;SDS011;48016;50.284;18.860;2022-09-27T01:28:32;48.80;;;28.10;;
62056;SDS011;48016;50.284;18.860;2022-09-27T01:37:26;52.10;;;28.60;;
62056;SDS011;48016;50.284;18.860;2022-09-27T01:40:27;50.80;;;28.50;;
62056;SDS011;48016;50.284;18.860;2022-09-27T01:43:24;50.40;;;29.10;;
62056;SDS011;48016;50.284;18.860;2022-09-27T01:46:24;49.70;;;29.70;;
62056;SDS011;48016;50.284;18.860;2022-09-27T01:49:14;49.10;;;27.20;;
62056;SDS011;48016;50.284;18.860;2022-09-27T01:52:01;50.60;;;29.10;;
62056;SDS011;48016;50.284;18.860;2022-09-27T01:54:51;54.40;;;30.50;;
62056;SDS011;48016;50.284;18.860;2022-09-27T01:57:39;50.90;;;31.10;;
62056;SDS011;48016;50.284;18.860;2022-09-27T02:00:27;55.00;;;30.90;;
62056;SDS011;48016;50.284;18.860;2022-09-27T02:03:12;51.30;;;29.80;;
62056;SDS011;48016;50.284;18.860;2022-09-27T02:06:02;48.50;;;30.10;;
62056;SDS011;48016;50.284;18.860;2022-09-27T02:12:14;48.30;;;30.10;;
62056;SDS011;48016;50.284;18.860;2022-09-27T02:15:08;48.80;;;27.80;;
62056;SDS011;48016;50.284;18.860;2022-09-27T02:17:57;51.00;;;28.10;;
62056;SDS011;48016;50.284;18.860;2022-09-27T02:20:45;51.70;;;29.80;;
62056;SDS011;48016;50.284;18.860;2022-09-27T02:23:35;49.10;;;28.00;;
62056;SDS011;48016;50.284;18.860;2022-09-27T02:26:59;51.60;;;30.10;;
62056;SDS011;48016;50.284;18.860;2022-09-27T02:29:45;52.10;;;30.10;;
62056;SDS011;48016;50.284;18.860;2022-09-27T02:32:36;46.80;;;28.00;;
62056;SDS011;48016;50.284;18.860;2022-09-27T02:35:23;51.00;;;28.90;;
62056;SDS011;48016;50.284;18.860;2022-09-27T02:38:10;56.80;;;32.40;;
62056;SDS011;48016;50.284;18.860;2022-09-27T02:40:54;58.70;;;33.50;;
62056;SDS011;48016;50.284;18.860;2022-09-27T02:43:38;57.40;;;33.00;;
62056;SDS011;48016;50.284;18.860;2022-09-27T02:52:49;56.10;;;32.30;;
62056;SDS011;48016;50.284;18.860;2022-09-27T03:05:00;58.00;;;33.40;;
62056;SDS011;48016;50.284;18.860;2022-09-27T03:07:48;55.40;;;33.20;;
62056;SDS011;48016;50.284;18.860;2022-09-27T03:10:32;53.60;;;30.60;;
62056;SDS011;48016;50.284;18.860;2022-09-27T03:13:16;64.50;;;34.60;;
62056;SDS011;48016;50.284;18.860;2022-09-27T03:16:00;59.20;;;34.20;;
62056;SDS011;48016;50.284;18.860;2022-09-27T03:18:45;60.10;;;31.90;;
62056;SDS011;48016;50.284;18.860;2022-09-27T03:21:29;60.10;;;33.50;;
62056;SDS011;48016;50.284;18.860;2022-09-27T03:24:13;55.20;;;32.60;;
62056;SDS011;48016;50.284;18.860;2022-09-27T03:26:58;58.50;;;34.00;;
62056;SDS011;48016;50.284;18.860;2022-09-27T03:29:42;60.00;;;33.70;;
62056;SDS011;48016;50.284;18.860;2022-09-27T03:32:26;56.90;;;32.60;;
62056;SDS011;48016;50.284;18.860;2022-09-27T03:35:11;49.90;;;31.10;;
62056;SDS011;48016;50.284;18.860;2022-09-27T03:37:56;56.10;;;31.30;;
62056;SDS011;48016;50.284;18.860;2022-09-27T03:40:40;50.30;;;30.30;;
62056;SDS011;48016;50.284;18.860;2022-09-27T03:43:24;54.90;;;28.30;;
62056;SDS011;48016;50.284;18.860;2022-09-27T03:46:08;45.60;;;24.90;;
62056;SDS011;48016;50.284;18.860;2022-09-27T03:48:52;45.80;;;23.80;;
62056;SDS011;48016;50.284;18.860;2022-09-27T03:51:36;43.10;;;25.40;;
62056;SDS011;48016;50.284;18.860;2022-09-27T03:54:20;42.00;;;23.80;;
62056;SDS011;48016;50.284;18.860;2022-09-27T03:57:04;40.70;;;23.60;;
62056;SDS011;48016;50.284;18.860;2022-09-27T03:59:48;42.40;;;24.10;;
62056;SDS011;48016;50.284;18.860;2022-09-27T04:02:32;43.20;;;24.60;;
62056;SDS011;48016;50.284;18.860;2022-09-27T04:05:02;38.50;;;23.30;;
62056;SDS011;48016;50.284;18.860;2022-09-27T04:07:32;42.10;;;23.80;;
62056;SDS011;48016;50.284;18.860;2022-09-27T04:10:02;43.00;;;23.70;;
62056;SDS011;48016;50.284;18.860;2022-09-27T04:12:32;47.40;;;25.10;;
62056;SDS011;48016;50.284;18.860;2022-09-27T04:15:02;44.50;;;24.30;;
62056;SDS011;48016;50.284;18.860;2022-09-27T04:17:32;47.60;;;25.50;;
62056;SDS011;48016;50.284;18.860;2022-09-27T04:20:01;41.90;;;22.90;;
62056;SDS011;48016;50.284;18.860;2022-09-27T04:22:32;39.80;;;23.90;;
62056;SDS011;48016;50.284;18.860;2022-09-27T04:25:01;44.60;;;25.90;;
62056;SDS011;48016;50.284;18.860;2022-09-27T04:27:31;40.40;;;23.80;;
62056;SDS011;48016;50.284;18.860;2022-09-27T04:30:01;33.60;;;18.40;;
62056;SDS011;48016;50.284;18.860;2022-09-27T04:32:30;40.60;;;23.60;;
62056;SDS011;48016;50.284;18.860;2022-09-27T04:35:00;42.60;;;25.00;;
62056;SDS011;48016;50.284;18.860;2022-09-27T04:37:48;35.70;;;21.60;;
62056;SDS011;48016;50.284;18.860;2022-09-27T04:40:19;40.00;;;23.40;;
62056;SDS011;48016;50.284;18.860;2022-09-27T04:42:50;36.20;;;22.60;;
62056;SDS011;48016;50.284;18.860;2022-09-27T04:45:20;37.40;;;23.30;;
62056;SDS011;48016;50.284;18.860;2022-09-27T04:47:49;36.00;;;22.20;;
62056;SDS011;48016;50.284;18.860;2022-09-27T04:50:19;38.60;;;24.70;;
62056;SDS011;48016;50.284;18.860;2022-09-27T04:52:49;39.20;;;24.40;;
62056;SDS011;48016;50.284;18.860;2022-09-27T04:55:20;42.90;;;24.90;;
62056;SDS011;48016;50.284;18.860;2022-09-27T04:57:50;42.00;;;24.50;;
62056;SDS011;48016;50.284;18.860;2022-09-27T05:00:20;40.90;;;25.20;;
62056;SDS011;48016;50.284;18.860;2022-09-27T05:02:49;37.70;;;23.00;;
62056;SDS011;48016;50.284;18.860;2022-09-27T05:05:19;37.70;;;23.00;;
62056;SDS011;48016;50.284;18.860;2022-09-27T05:07:49;35.40;;;23.60;;
62056;SDS011;48016;50.284;18.860;2022-09-27T05:10:18;37.70;;;23.00;;
62056;SDS011;48016;50.284;18.860;2022-09-27T05:12:48;33.70;;;22.60;;
62056;SDS011;48016;50.284;18.860;2022-09-27T05:15:17;34.50;;;22.10;;
62056;SDS011;48016;50.284;18.860;2022-09-27T05:17:49;37.20;;;24.20;;
62056;SDS011;48016;50.284;18.860;2022-09-27T05:20:19;40.20;;;27.20;;
62056;SDS011;48016;50.284;18.860;2022-09-27T05:22:49;51.50;;;31.90;;
62056;SDS011;48016;50.284;18.860;2022-09-27T05:25:19;44.40;;;29.50;;
62056;SDS011;48016;50.284;18.860;2022-09-27T05:27:49;42.60;;;30.10;;
62056;SDS011;48016;50.284;18.860;2022-09-27T05:30:19;45.00;;;30.60;;
62056;SDS011;48016;50.284;18.860;2022-09-27T05:32:49;44.00;;;29.40;;
62056;SDS011;48016;50.284;18.860;2022-09-27T05:35:19;32.50;;;22.40;;
62056;SDS011;48016;50.284;18.860;2022-09-27T05:37:53;31.20;;;21.00;;
62056;SDS011;48016;50.284;18.860;2022-09-27T05:40:23;29.20;;;21.40;;
62056;SDS011;48016;50.284;18.860;2022-09-27T05:42:54;30.90;;;20.60;;
62056;SDS011;48016;50.284;18.860;2022-09-27T05:45:24;29.10;;;21.30;;
62056;SDS011;48016;50.284;18.860;2022-09-27T05:47:54;33.40;;;20.80;;
62056;SDS011;48016;50.284;18.860;2022-09-27T05:50:26;33.40;;;21.60;;
62056;SDS011;48016;50.284;18.860;2022-09-27T05:52:55;33.40;;;20.90;;
62056;SDS011;48016;50.284;18.860;2022-09-27T05:55:26;29.30;;;19.80;;
62056;SDS011;48016;50.284;18.860;2022-09-27T05:57:59;30.10;;;18.10;;
62056;SDS011;48016;50.284;18.860;2022-09-27T06:00:36;30.00;;;19.30;;
62056;SDS011;48016;50.284;18.860;2022-09-27T06:03:06;30.00;;;20.20;;
62056;SDS011;48016;50.284;18.860;2022-09-27T06:05:37;31.90;;;22.20;;
62056;SDS011;48016;50.284;18.860;2022-09-27T06:08:09;31.60;;;20.10;;
62056;SDS011;48016;50.284;18.860;2022-09-27T06:10:40;30.30;;;20.60;;
62056;SDS011;48016;50.284;18.860;2022-09-27T06:13:11;34.90;;;21.60;;
62056;SDS011;48016;50.284;18.860;2022-09-27T06:15:43;32.90;;;20.50;;
62056;SDS011;48016;50.284;18.860;2022-09-27T06:18:14;29.80;;;19.30;;
62056;SDS011;48016;50.284;18.860;2022-09-27T06:20:46;25.00;;;18.80;;
62056;SDS011;48016;50.284;18.860;2022-09-27T06:23:17;27.40;;;19.10;;
62056;SDS011;48016;50.284;18.860;2022-09-27T06:25:48;30.40;;;20.70;;
62056;SDS011;48016;50.284;18.860;2022-09-27T06:28:26;26.60;;;19.00;;
62056;SDS011;48016;50.284;18.860;2022-09-27T06:30:55;28.10;;;19.30;;
62056;SDS011;48016;50.284;18.860;2022-09-27T06:33:28;26.90;;;18.00;;
62056;SDS011;48016;50.284;18.860;2022-09-27T06:36:01;28.90;;;18.00;;
62056;SDS011;48016;50.284;18.860;2022-09-27T06:38:32;28.60;;;18.20;;
62056;SDS011;48016;50.284;18.860;2022-09-27T06:41:03;27.70;;;19.00;;
62056;SDS011;48016;50.284;18.860;2022-09-27T06:43:37;24.10;;;18.50;;
62056;SDS011;48016;50.284;18.860;2022-09-27T06:46:07;31.90;;;21.10;;
62056;SDS011;48016;50.284;18.860;2022-09-27T06:48:43;31.20;;;19.30;;
62056;SDS011;48016;50.284;18.860;2022-09-27T06:51:13;33.90;;;21.40;;
62056;SDS011;48016;50.284;18.860;2022-09-27T06:53:43;29.40;;;20.40;;
62056;SDS011;48016;50.284;18.860;2022-09-27T06:56:12;33.80;;;23.60;;
62056;SDS011;48016;50.284;18.860;2022-09-27T06:58:42;32.50;;;23.50;;
62056;SDS011;48016;50.284;18.860;2022-09-27T07:01:30;32.30;;;23.10;;
62056;SDS011;48016;50.284;18.860;2022-09-27T07:04:00;30.20;;;21.60;;
62056;SDS011;48016;50.284;18.860;2022-09-27T07:06:29;26.90;;;20.00;;
62056;SDS011;48016;50.284;18.860;2022-09-27T07:08:59;29.50;;;21.80;;
62056;SDS011;48016;50.284;18.860;2022-09-27T07:11:28;30.80;;;20.30;;
62056;SDS011;48016;50.284;18.860;2022-09-27T07:13:58;24.60;;;18.80;;
62056;SDS011;48016;50.284;18.860;2022-09-27T07:16:27;27.10;;;20.20;;
62056;SDS011;48016;50.284;18.860;2022-09-27T07:18:57;24.60;;;19.40;;
62056;SDS011;48016;50.284;18.860;2022-09-27T07:21:26;26.00;;;18.80;;
62056;SDS011;48016;50.284;18.860;2022-09-27T07:23:55;24.10;;;18.00;;
62056;SDS011;48016;50.284;18.860;2022-09-27T07:26:25;23.40;;;17.90;;
62056;SDS011;48016;50.284;18.860;2022-09-27T07:28:54;26.40;;;19.80;;
62056;SDS011;48016;50.284;18.860;2022-09-27T07:31:25;22.80;;;17.20;;
62056;SDS011;48016;50.284;18.860;2022-09-27T07:33:54;26.10;;;18.80;;
62056;SDS011;48016;50.284;18.860;2022-09-27T07:36:24;22.90;;;18.00;;
62056;SDS011;48016;50.284;18.860;2022-09-27T07:38:53;26.00;;;18.70;;
62056;SDS011;48016;50.284;18.860;2022-09-27T07:41:24;27.30;;;18.70;;
62056;SDS011;48016;50.284;18.860;2022-09-27T07:43:57;26.10;;;16.90;;
62056;SDS011;48016;50.284;18.860;2022-09-27T07:46:28;22.30;;;16.10;;
62056;SDS011;48016;50.284;18.860;2022-09-27T07:48:58;24.30;;;19.00;;
62056;SDS011;48016;50.284;18.860;2022-09-27T07:51:27;21.70;;;15.70;;
62056;SDS011;48016;50.284;18.860;2022-09-27T07:53:57;21.20;;;15.30;;
62056;SDS011;48016;50.284;18.860;2022-09-27T07:56:26;19.20;;;15.50;;
62056;SDS011;48016;50.284;18.860;2022-09-27T07:58:56;16.00;;;11.10;;
62056;SDS011;48016;50.284;18.860;2022-09-27T08:01:25;16.30;;;10.70;;
62056;SDS011;48016;50.284;18.860;2022-09-27T08:03:55;18.60;;;13.40;;
62056;SDS011;48016;50.284;18.860;2022-09-27T08:06:26;20.10;;;13.70;;
62056;SDS011;48016;50.284;18.860;2022-09-27T08:08:56;17.90;;;13.50;;
62056;SDS011;48016;50.284;18.860;2022-09-27T08:11:27;18.10;;;12.30;;
62056;SDS011;48016;50.284;18.860;2022-09-27T08:13:57;16.20;;;12.30;;
62056;SDS011;48016;50.284;18.860;2022-09-27T08:16:26;16.30;;;11.40;;
62056;SDS011;48016;50.284;18.860;2022-09-27T08:18:56;15.50;;;11.60;;
62056;SDS011;48016;50.284;18.860;2022-09-27T08:21:25;15.80;;;11.80;;
62056;SDS011;48016;50.284;18.860;2022-09-27T08:23:55;18.60;;;13.10;;
62056;SDS011;48016;50.284;18.860;2022-09-27T08:26:26;15.80;;;12.40;;
62056;SDS011;48016;50.284;18.860;2022-09-27T08:28:55;13.10;;;9.70;;
62056;SDS011;48016;50.284;18.860;2022-09-27T08:31:25;12.10;;;9.00;;
62056;SDS011;48016;50.284;18.860;2022-09-27T08:33:54;15.30;;;9.90;;
62056;SDS011;48016;50.284;18.860;2022-09-27T08:36:25;13.20;;;8.80;;
62056;SDS011;48016;50.284;18.860;2022-09-27T08:38:54;11.30;;;7.80;;
62056;SDS011;48016;50.284;18.860;2022-09-27T08:42:30;13.00;;;8.40;;
62056;SDS011;48016;50.284;18.860;2022-09-27T08:47:30;10.00;;;8.40;;
62056;SDS011;48016;50.284;18.860;2022-09-27T08:50:24;11.80;;;7.90;;
62056;SDS011;48016;50.284;18.860;2022-09-27T08:53:13;11.30;;;7.70;;
62056;SDS011;48016;50.284;18.860;2022-09-27T08:55:50;11.50;;;7.90;;
62056;SDS011;48016;50.284;18.860;2022-09-27T09:01:15;10.90;;;7.50;;
62056;SDS011;48016;50.284;18.860;2022-09-27T09:03:49;9.20;;;6.80;;
62056;SDS011;48016;50.284;18.860;2022-09-27T09:17:35;10.00;;;7.50;;
62056;SDS011;48016;50.284;18.860;2022-09-27T09:20:23;10.20;;;6.90;;
62056;SDS011;48016;50.284;18.860;2022-09-27T09:35:14;10.20;;;7.10;;
62056;SDS011;48016;50.284;18.860;2022-09-27T09:37:51;8.60;;;6.80;;
62056;SDS011;48016;50.284;18.860;2022-09-27T09:40:28;12.90;;;7.20;;
62056;SDS011;48016;50.284;18.860;2022-09-27T09:43:04;11.40;;;6.60;;
62056;SDS011;48016;50.284;18.860;2022-09-27T09:45:52;10.20;;;6.60;;
62056;SDS011;48016;50.284;18.860;2022-09-27T09:48:29;8.30;;;5.90;;
62056;SDS011;48016;50.284;18.860;2022-09-27T09:51:05;9.40;;;6.00;;
62056;SDS011;48016;50.284;18.860;2022-09-27T09:53:41;9.00;;;5.90;;
62056;SDS011;48016;50.284;18.860;2022-09-27T09:59:01;9.00;;;7.00;;
62056;SDS011;48016;50.284;18.860;2022-09-27T10:01:40;9.60;;;6.20;;
62056;SDS011;48016;50.284;18.860;2022-09-27T10:04:19;9.50;;;5.80;;
62056;SDS011;48016;50.284;18.860;2022-09-27T10:06:51;7.40;;;5.80;;
62056;SDS011;48016;50.284;18.860;2022-09-27T10:09:23;10.20;;;6.80;;
62056;SDS011;48016;50.284;18.860;2022-09-27T10:11:56;8.40;;;5.90;;
62056;SDS011;48016;50.284;18.860;2022-09-27T10:14:24;9.30;;;6.50;;
62056;SDS011;48016;50.284;18.860;2022-09-27T10:16:57;9.60;;;6.50;;
62056;SDS011;48016;50.284;18.860;2022-09-27T10:19:35;9.50;;;5.90;;
62056;SDS011;48016;50.284;18.860;2022-09-27T10:22:18;8.10;;;5.80;;
62056;SDS011;48016;50.284;18.860;2022-09-27T10:27:50;8.30;;;5.60;;
62056;SDS011;48016;50.284;18.860;2022-09-27T10:30:27;8.70;;;5.60;;
62056;SDS011;48016;50.284;18.860;2022-09-27T10:33:02;10.90;;;6.20;;
62056;SDS011;48016;50.284;18.860;2022-09-27T10:35:36;7.20;;;5.50;;
62056;SDS011;48016;50.284;18.860;2022-09-27T10:40:45;8.90;;;5.80;;
62056;SDS011;48016;50.284;18.860;2022-09-27T10:43:27;9.20;;;6.30;;
62056;SDS011;48016;50.284;18.860;2022-09-27T10:46:43;7.50;;;6.00;;
62056;SDS011;48016;50.284;18.860;2022-09-27T10:48:47;8.50;;;6.20;;
62056;SDS011;48016;50.284;18.860;2022-09-27T10:51:24;7.80;;;6.20;;
62056;SDS011;48016;50.284;18.860;2022-09-27T10:53:58;8.80;;;6.00;;
62056;SDS011;48016;50.284;18.860;2022-09-27T10:56:30;9.50;;;5.70;;
62056;SDS011;48016;50.284;18.860;2022-09-27T10:59:02;8.70;;;6.10;;
62056;SDS011;48016;50.284;18.860;2022-09-27T11:01:40;9.30;;;5.30;;
62056;SDS011;48016;50.284;18.860;2022-09-27T11:04:33;6.40;;;5.10;;
62056;SDS011;48016;50.284;18.860;2022-09-27T11:07:15;7.80;;;5.10;;
62056;SDS011;48016;50.284;18.860;2022-09-27T11:09:50;9.70;;;5.80;;
62056;SDS011;48016;50.284;18.860;2022-09-27T11:12:22;7.50;;;5.50;;
62056;SDS011;48016;50.284;18.860;2022-09-27T11:20:38;8.40;;;4.80;;
62056;SDS011;48016;50.284;18.860;2022-09-27T11:29:18;8.90;;;5.30;;
62056;SDS011;48016;50.284;18.860;2022-09-27T11:34:53;9.20;;;5.60;;
62056;SDS011;48016;50.284;18.860;2022-09-27T11:40:30;7.50;;;5.30;;
62056;SDS011;48016;50.284;18.860;2022-09-27T11:46:27;8.40;;;5.60;;
62056;SDS011;48016;50.284;18.860;2022-09-27T11:49:16;7.80;;;6.00;;
62056;SDS011;48016;50.284;18.860;2022-09-27T11:58:03;7.40;;;5.70;;
62056;SDS011;48016;50.284;18.860;2022-09-27T12:07:43;9.80;;;6.80;;
62056;SDS011;48016;50.284;18.860;2022-09-27T12:09:56;9.70;;;6.90;;
62056;SDS011;48016;50.284;18.860;2022-09-27T12:12:32;10.40;;;7.20;;
62056;SDS011;48016;50.284;18.860;2022-09-27T12:15:10;8.10;;;6.50;;
62056;SDS011;48016;50.284;18.860;2022-09-27T12:18:24;7.80;;;6.00;;
62056;SDS011;48016;50.284;18.860;2022-09-27T12:20:58;9.90;;;6.80;;
62056;SDS011;48016;50.284;18.860;2022-09-27T12:31:26;13.20;;;9.50;;
62056;SDS011;48016;50.284;18.860;2022-09-27T12:34:37;14.60;;;9.10;;
62056;SDS011;48016;50.284;18.860;2022-09-27T12:37:22;15.30;;;10.00;;
62056;SDS011;48016;50.284;18.860;2022-09-27T12:42:48;24.90;;;15.80;;
62056;SDS011;48016;50.284;18.860;2022-09-27T12:51:19;17.40;;;11.60;;
62056;SDS011;48016;50.284;18.860;2022-09-27T12:59:58;15.20;;;11.10;;
62056;SDS011;48016;50.284;18.860;2022-09-27T13:02:36;16.80;;;11.60;;
62056;SDS011;48016;50.284;18.860;2022-09-27T13:14:19;20.10;;;14.10;;
62056;SDS011;48016;50.284;18.860;2022-09-27T13:16:53;25.00;;;15.40;;
62056;SDS011;48016;50.284;18.860;2022-09-27T13:19:40;24.40;;;15.00;;
62056;SDS011;48016;50.284;18.860;2022-09-27T13:24:54;16.40;;;10.80;;
62056;SDS011;48016;50.284;18.860;2022-09-27T13:32:38;14.60;;;9.10;;
62056;SDS011;48016;50.284;18.860;2022-09-27T13:35:10;14.10;;;10.40;;
62056;SDS011;48016;50.284;18.860;2022-09-27T13:38:01;14.50;;;10.20;;
62056;SDS011;48016;50.284;18.860;2022-09-27T13:40:34;14.90;;;9.10;;
62056;SDS011;48016;50.284;18.860;2022-09-27T13:46:03;14.00;;;9.00;;
62056;SDS011;48016;50.284;18.860;2022-09-27T13:48:43;12.60;;;8.70;;
62056;SDS011;48016;50.284;18.860;2022-09-27T13:51:16;13.90;;;9.20;;
62056;SDS011;48016;50.284;18.860;2022-09-27T13:59:57;11.40;;;8.30;;
62056;SDS011;48016;50.284;18.860;2022-09-27T14:02:24;14.80;;;8.70;;
62056;SDS011;48016;50.284;18.860;2022-09-27T14:04:58;14.70;;;8.80;;
62056;SDS011;48016;50.284;18.860;2022-09-27T14:07:35;13.90;;;9.00;;
62056;SDS011;48016;50.284;18.860;2022-09-27T14:10:15;13.80;;;8.40;;
62056;SDS011;48016;50.284;18.860;2022-09-27T14:12:46;7.60;;;5.30;;
62056;SDS011;48016;50.284;18.860;2022-09-27T14:15:29;7.40;;;3.40;;
62056;SDS011;48016;50.284;18.860;2022-09-27T14:18:00;6.60;;;3.60;;
62056;SDS011;48016;50.284;18.860;2022-09-27T14:23:02;7.90;;;3.90;;
62056;SDS011;48016;50.284;18.860;2022-09-27T14:25:32;4.70;;;2.80;;
62056;SDS011;48016;50.284;18.860;2022-09-27T14:28:02;5.40;;;2.60;;
62056;SDS011;48016;50.284;18.860;2022-09-27T14:30:31;5.20;;;2.50;;
62056;SDS011;48016;50.284;18.860;2022-09-27T14:33:01;5.20;;;2.80;;
62056;SDS011;48016;50.284;18.860;2022-09-27T14:35:30;5.40;;;2.70;;
62056;SDS011;48016;50.284;18.860;2022-09-27T14:38:33;5.90;;;2.70;;
62056;SDS011;48016;50.284;18.860;2022-09-27T14:41:04;5.00;;;2.50;;
62056;SDS011;48016;50.284;18.860;2022-09-27T14:43:42;5.70;;;2.90;;
62056;SDS011;48016;50.284;18.860;2022-09-27T14:46:49;6.80;;;2.90;;
62056;SDS011;48016;50.284;18.860;2022-09-27T14:49:20;7.80;;;3.60;;
62056;SDS011;48016;50.284;18.860;2022-09-27T14:51:52;7.30;;;3.80;;
62056;SDS011;48016;50.284;18.860;2022-09-27T14:54:27;8.30;;;4.00;;
62056;SDS011;48016;50.284;18.860;2022-09-27T14:56:59;7.90;;;3.90;;
62056;SDS011;48016;50.284;18.860;2022-09-27T14:59:32;7.00;;;3.90;;
62056;SDS011;48016;50.284;18.860;2022-09-27T15:02:10;7.30;;;4.70;;
62056;SDS011;48016;50.284;18.860;2022-09-27T15:04:48;8.30;;;4.30;;
62056;SDS011;48016;50.284;18.860;2022-09-27T15:07:19;7.90;;;4.60;;
62056;SDS011;48016;50.284;18.860;2022-09-27T15:09:53;10.90;;;5.80;;
62056;SDS011;48016;50.284;18.860;2022-09-27T15:12:25;8.30;;;5.90;;
62056;SDS011;48016;50.284;18.860;2022-09-27T15:14:55;9.30;;;5.80;;
62056;SDS011;48016;50.284;18.860;2022-09-27T15:17:26;10.50;;;5.80;;
62056;SDS011;48016;50.284;18.860;2022-09-27T15:20:17;9.30;;;4.50;;
62056;SDS011;48016;50.284;18.860;2022-09-27T15:22:53;9.10;;;5.20;;
62056;SDS011;48016;50.284;18.860;2022-09-27T15:25:31;10.10;;;5.20;;
62056;SDS011;48016;50.284;18.860;2022-09-27T15:28:14;9.00;;;4.90;;
62056;SDS011;48016;50.284;18.860;2022-09-27T15:30:52;11.20;;;6.00;;
62056;SDS011;48016;50.284;18.860;2022-09-27T15:35:55;14.10;;;7.90;;
62056;SDS011;48016;50.284;18.860;2022-09-27T15:46:23;24.80;;;15.20;;
62056;SDS011;48016;50.284;18.860;2022-09-27T15:51:45;33.90;;;19.90;;
62056;SDS011;48016;50.284;18.860;2022-09-27T15:54:17;39.40;;;21.70;;
62056;SDS011;48016;50.284;18.860;2022-09-27T15:56:50;33.80;;;20.80;;
62056;SDS011;48016;50.284;18.860;2022-09-27T15:59:25;29.30;;;19.80;;
62056;SDS011;48016;50.284;18.860;2022-09-27T16:01:57;31.30;;;18.40;;
62056;SDS011;48016;50.284;18.860;2022-09-27T16:04:28;38.60;;;24.50;;
62056;SDS011;48016;50.284;18.860;2022-09-27T16:07:00;35.30;;;23.00;;
62056;SDS011;48016;50.284;18.860;2022-09-27T16:09:32;30.40;;;17.70;;
62056;SDS011;48016;50.284;18.860;2022-09-27T16:12:02;27.50;;;14.80;;
62056;SDS011;48016;50.284;18.860;2022-09-27T16:14:32;22.60;;;13.70;;
62056;SDS011;48016;50.284;18.860;2022-09-27T16:17:01;20.50;;;13.40;;
62056;SDS011;48016;50.284;18.860;2022-09-27T16:19:31;21.70;;;14.50;;
62056;SDS011;48016;50.284;18.860;2022-09-27T16:22:00;34.10;;;18.20;;
62056;SDS011;48016;50.284;18.860;2022-09-27T16:24:31;35.30;;;20.40;;
62056;SDS011;48016;50.284;18.860;2022-09-27T16:26:59;32.90;;;21.90;;
62056;SDS011;48016;50.284;18.860;2022-09-27T16:29:29;36.80;;;22.60;;
62056;SDS011;48016;50.284;18.860;2022-09-27T16:31:57;40.50;;;23.80;;
62056;SDS011;48016;50.284;18.860;2022-09-27T16:34:27;43.20;;;24.60;;
62056;SDS011;48016;50.284;18.860;2022-09-27T16:36:57;41.10;;;25.70;;
62056;SDS011;48016;50.284;18.860;2022-09-27T16:39:26;39.90;;;22.70;;
62056;SDS011;48016;50.284;18.860;2022-09-27T16:41:56;39.50;;;23.60;;
62056;SDS011;48016;50.284;18.860;2022-09-27T16:44:25;41.10;;;24.20;;
62056;SDS011;48016;50.284;18.860;2022-09-27T16:46:56;36.20;;;23.10;;
62056;SDS011;48016;50.284;18.860;2022-09-27T16:49:25;36.10;;;22.80;;
62056;SDS011;48016;50.284;18.860;2022-09-27T16:52:14;36.90;;;23.40;;
62056;SDS011;48016;50.284;18.860;2022-09-27T16:54:43;38.20;;;24.70;;
62056;SDS011;48016;50.284;18.860;2022-09-27T16:57:13;39.60;;;24.10;;
62056;SDS011;48016;50.284;18.860;2022-09-27T16:59:42;44.30;;;25.00;;
62056;SDS011;48016;50.284;18.860;2022-09-27T17:02:12;40.60;;;25.00;;
62056;SDS011;48016;50.284;18.860;2022-09-27T17:04:42;42.80;;;24.40;;
62056;SDS011;48016;50.284;18.860;2022-09-27T17:07:12;40.90;;;24.90;;
62056;SDS011;48016;50.284;18.860;2022-09-27T17:09:42;37.90;;;23.70;;
62056;SDS011;48016;50.284;18.860;2022-09-27T17:12:12;45.00;;;25.80;;
62056;SDS011;48016;50.284;18.860;2022-09-27T17:14:42;41.00;;;28.30;;
62056;SDS011;48016;50.284;18.860;2022-09-27T17:17:12;41.30;;;28.10;;
62056;SDS011;48016;50.284;18.860;2022-09-27T17:19:42;50.20;;;29.90;;
62056;SDS011;48016;50.284;18.860;2022-09-27T17:22:11;46.50;;;27.60;;
62056;SDS011;48016;50.284;18.860;2022-09-27T17:24:41;51.10;;;31.30;;
62056;SDS011;48016;50.284;18.860;2022-09-27T17:27:11;53.60;;;28.90;;
62056;SDS011;48016;50.284;18.860;2022-09-27T17:29:40;50.30;;;29.30;;
62056;SDS011;48016;50.284;18.860;2022-09-27T17:32:11;44.50;;;26.40;;
62056;SDS011;48016;50.284;18.860;2022-09-27T17:34:41;47.80;;;26.30;;
62056;SDS011;48016;50.284;18.860;2022-09-27T17:37:12;43.90;;;26.20;;
62056;SDS011;48016;50.284;18.860;2022-09-27T17:39:42;41.90;;;25.80;;
62056;SDS011;48016;50.284;18.860;2022-09-27T17:42:11;42.60;;;24.70;;
62056;SDS011;48016;50.284;18.860;2022-09-27T17:44:41;41.20;;;25.90;;
62056;SDS011;48016;50.284;18.860;2022-09-27T17:47:10;38.30;;;23.80;;
62056;SDS011;48016;50.284;18.860;2022-09-27T17:49:59;39.40;;;23.10;;
62056;SDS011;48016;50.284;18.860;2022-09-27T17:52:47;44.40;;;25.90;;
62056;SDS011;48016;50.284;18.860;2022-09-27T17:55:16;41.40;;;26.60;;
62056;SDS011;48016;50.284;18.860;2022-09-27T17:57:46;51.20;;;29.90;;
62056;SDS011;48016;50.284;18.860;2022-09-27T18:00:17;57.40;;;31.40;;